Time;durP1;ratioP1;P1;durP2;ratioP2;P2;SDS_P1;SDS_P2;PMS_P1;PMS_P2;Temp;Humidity;BMP_temperature;BMP_pressure;BME280_temperature;BME280_humidity;BME280_pressure;Samples;Min_cycle;Max_cycle;Signal;HPM_P1;HPM_P2
2022/10/05 00:02:17;;;;;;;;;;;14.90;99.90;;;;;;5045585;28;20317;-67
2022/10/05 00:04:43;;;;;;;;;;;14.90;99.90;;;;;;5049562;28;20408;-67
2022/10/05 00:07:13;;;;;;;;;;;14.80;99.90;;;;;;5058300;28;19920;-67
2022/10/05 00:09:38;;;;;;;;;;;14.80;99.90;;;;;;5042289;28;19924;-67
2022/10/05 00:12:18;;;;;;;;;;;14.80;99.90;;;;;;5053844;28;20419;-67
2022/10/05 00:14:44;;;;;;;;;;;14.80;99.90;;;;;;5066358;28;19921;-67
2022/10/05 00:17:13;;;;;;;;;;;14.80;99.90;;;;;;5060843;28;19924;-67
2022/10/05 00:19:39;;;;;;;;;;;14.80;99.90;;;;;;5052030;28;19928;-67
2022/10/05 00:22:07;;;;;;;;;;;14.80;99.90;;;;;;5048788;28;19978;-67
2022/10/05 00:24:33;;;;;;;;;;;14.80;99.90;;;;;;5036748;28;19924;-67
2022/10/05 00:27:17;;;;;;;;;;;14.80;99.90;;;;;;5053103;28;19920;-67
2022/10/05 00:29:43;;;;;;;;;;;14.80;99.90;;;;;;5040780;28;20115;-67
2022/10/05 00:32:09;;;;;;;;;;;14.80;99.90;;;;;;5062415;28;19920;-67
2022/10/05 00:34:35;;;;;;;;;;;14.80;99.90;;;;;;5066610;28;20432;-67
2022/10/05 00:37:00;;;;;;;;;;;14.80;99.90;;;;;;5051657;28;20046;-67
2022/10/05 00:39:26;;;;;;;;;;;14.80;99.90;;;;;;5044044;28;19978;-67
2022/10/05 00:42:16;;;;;;;;;;;14.80;99.90;;;;;;5056244;28;19935;-67
2022/10/05 00:44:48;;;;;;;;;;;14.80;99.90;;;;;;5053252;28;20317;-67
2022/10/05 00:47:19;;;;;;;;;;;14.80;99.90;;;;;;5054305;28;19920;-67
2022/10/05 00:49:57;;;;;;;;;;;14.80;99.90;;;;;;5051812;28;19951;-67
2022/10/05 00:52:48;;;;;;;;;;;14.80;99.90;;;;;;5053800;28;19921;-67
2022/10/05 00:55:33;;;;;;;;;;;14.80;99.90;;;;;;5049122;28;20277;-67
2022/10/05 00:58:13;;;;;;;;;;;14.70;99.90;;;;;;5068463;28;19924;-67
2022/10/05 01:00:52;;;;;;;;;;;14.70;99.90;;;;;;5069962;28;20020;-67
2022/10/05 01:03:23;;;;;;;;;;;14.70;99.90;;;;;;5064608;28;20393;-67
2022/10/05 01:06:04;;;;;;;;;;;14.70;99.90;;;;;;5060533;28;19920;-67
2022/10/05 01:08:29;;;;;;;;;;;14.70;99.90;;;;;;5052457;28;19932;-67
2022/10/05 01:11:02;;;;;;;;;;;14.80;99.90;;;;;;5054901;28;19947;-67
2022/10/05 01:13:40;;;;;;;;;;;14.80;99.90;;;;;;5063561;28;20340;-67
2022/10/05 01:16:05;;;;;;;;;;;14.80;99.90;;;;;;5063211;28;19925;-67
2022/10/05 01:18:38;;;;;;;;;;;14.80;99.90;;;;;;5052541;28;19931;-67
2022/10/05 01:21:13;;;;;;;;;;;14.80;99.90;;;;;;5068801;28;19951;-67
2022/10/05 01:24:05;;;;;;;;;;;14.80;99.90;;;;;;5044538;28;19932;-67
2022/10/05 01:26:37;;;;;;;;;;;14.80;99.90;;;;;;5062409;28;19947;-67
2022/10/05 01:29:03;;;;;;;;;;;14.80;99.90;;;;;;5062077;28;19931;-67
2022/10/05 01:31:47;;;;;;;;;;;14.80;99.90;;;;;;5072418;28;20285;-67
2022/10/05 01:34:12;;;;;;;;;;;14.80;99.90;;;;;;5054890;28;20057;-67
2022/10/05 01:36:38;;;;;;;;;;;14.80;99.90;;;;;;5051396;28;20746;-67
2022/10/05 01:39:16;;;;;;;;;;;14.80;99.90;;;;;;5066171;28;19929;-67
2022/10/05 01:41:53;;;;;;;;;;;14.80;99.90;;;;;;5064143;28;19936;-67
2022/10/05 01:44:20;;;;;;;;;;;14.80;99.90;;;;;;5050709;28;19931;-67
2022/10/05 01:46:49;;;;;;;;;;;14.80;99.90;;;;;;5063371;28;20527;-67
2022/10/05 01:49:33;;;;;;;;;;;14.70;99.90;;;;;;5064812;28;20066;-67
2022/10/05 01:52:04;;;;;;;;;;;14.80;99.90;;;;;;5053050;28;20274;-67
2022/10/05 01:54:48;;;;;;;;;;;14.70;99.90;;;;;;5049988;28;20432;-67
2022/10/05 01:57:32;;;;;;;;;;;14.70;99.90;;;;;;5070405;28;20281;-67
2022/10/05 02:00:02;;;;;;;;;;;14.70;99.90;;;;;;5060697;28;19929;-67
2022/10/05 02:02:28;;;;;;;;;;;14.70;99.90;;;;;;5050537;28;19932;-67
2022/10/05 02:04:56;;;;;;;;;;;14.80;99.90;;;;;;5052831;28;19928;-67
2022/10/05 02:07:23;;;;;;;;;;;14.70;99.90;;;;;;5064497;28;20007;-67
2022/10/05 02:09:59;;;;;;;;;;;14.70;99.90;;;;;;5066486;28;19924;-67
2022/10/05 02:12:27;;;;;;;;;;;14.70;99.90;;;;;;5065513;28;20035;-67
2022/10/05 02:14:55;;;;;;;;;;;14.70;99.90;;;;;;5054066;28;19920;-67
2022/10/05 02:17:24;;;;;;;;;;;14.70;99.90;;;;;;5066727;28;19920;-67
2022/10/05 02:19:51;;;;;;;;;;;14.70;99.90;;;;;;5044998;28;19921;-67
2022/10/05 02:22:20;;;;;;;;;;;14.60;99.90;;;;;;5065727;28;21369;-67
2022/10/05 02:24:53;;;;;;;;;;;14.70;99.90;;;;;;5067637;28;19921;-67
2022/10/05 02:27:21;;;;;;;;;;;14.70;99.90;;;;;;5055380;28;20278;-67
2022/10/05 02:29:47;;;;;;;;;;;14.70;99.90;;;;;;5063395;28;19924;-67
2022/10/05 02:32:15;;;;;;;;;;;14.70;99.90;;;;;;5051545;28;20497;-67
2022/10/05 02:34:42;;;;;;;;;;;14.70;99.90;;;;;;5050790;28;20015;-67
2022/10/05 02:37:17;;;;;;;;;;;14.70;99.90;;;;;;5049816;28;19944;-67
2022/10/05 02:39:51;;;;;;;;;;;14.60;99.90;;;;;;5048877;28;19950;-67
2022/10/05 02:42:35;;;;;;;;;;;14.70;99.90;;;;;;5048080;28;19928;-67
2022/10/05 02:45:00;;;;;;;;;;;14.70;99.90;;;;;;5063704;28;19928;-67
2022/10/05 02:47:37;;;;;;;;;;;14.60;99.90;;;;;;5042316;28;19924;-67
2022/10/05 02:50:10;;;;;;;;;;;14.70;99.90;;;;;;5058707;28;19932;-67
2022/10/05 02:52:38;;;;;;;;;;;14.60;99.90;;;;;;5059620;28;19928;-67
2022/10/05 02:55:07;;;;;;;;;;;14.60;99.90;;;;;;5039083;28;19951;-67
2022/10/05 02:57:35;;;;;;;;;;;14.60;99.90;;;;;;5037478;28;20289;-67
2022/10/05 03:00:13;;;;;;;;;;;14.60;99.90;;;;;;5047811;28;19927;-68
2022/10/05 03:02:38;;;;;;;;;;;14.70;99.90;;;;;;5063640;28;19928;-68
2022/10/05 03:05:10;;;;;;;;;;;14.60;99.90;;;;;;5046068;28;20362;-68
2022/10/05 03:07:49;;;;;;;;;;;14.60;99.90;;;;;;5049787;28;19935;-68
2022/10/05 03:10:33;;;;;;;;;;;14.60;99.90;;;;;;5040141;23;19937;-66
2022/10/05 03:13:15;;;;;;;;;;;14.60;99.90;;;;;;5030117;28;19936;-66
2022/10/05 03:15:43;;;;;;;;;;;14.60;99.90;;;;;;5030952;28;19921;-66
2022/10/05 03:18:19;;;;;;;;;;;14.60;99.90;;;;;;5026643;28;20346;-66
2022/10/05 03:20:48;;;;;;;;;;;14.60;99.90;;;;;;5025374;28;20397;-66
2022/10/05 03:23:21;;;;;;;;;;;14.60;99.90;;;;;;5037473;28;19955;-66
2022/10/05 03:25:49;;;;;;;;;;;14.60;99.90;;;;;;5030488;28;19925;-66
2022/10/05 03:28:24;;;;;;;;;;;14.60;99.90;;;;;;5030251;28;20015;-66
2022/10/05 03:31:08;;;;;;;;;;;14.60;99.90;;;;;;5036852;28;19925;-66
2022/10/05 03:33:48;;;;;;;;;;;14.60;99.90;;;;;;5029318;28;19921;-66
2022/10/05 03:36:14;;;;;;;;;;;14.60;99.90;;;;;;5030120;28;19922;-66
2022/10/05 03:38:39;;;;;;;;;;;14.60;99.90;;;;;;5024539;28;19925;-66
2022/10/05 03:41:24;;;;;;;;;;;14.60;99.90;;;;;;5036846;28;19929;-66
2022/10/05 03:44:01;;;;;;;;;;;14.60;99.90;;;;;;5029333;28;19999;-66
2022/10/05 03:46:43;;;;;;;;;;;14.60;99.90;;;;;;5036235;28;19932;-66
2022/10/05 03:49:12;;;;;;;;;;;14.60;99.90;;;;;;5032798;28;20485;-66
2022/10/05 03:51:44;;;;;;;;;;;14.60;99.90;;;;;;5028013;28;19929;-66
2022/10/05 03:54:15;;;;;;;;;;;14.60;99.90;;;;;;5029941;28;19928;-66
2022/10/05 03:56:48;;;;;;;;;;;14.60;99.90;;;;;;5031785;28;19921;-66
2022/10/05 03:59:17;;;;;;;;;;;14.60;99.90;;;;;;5034542;28;19929;-66
2022/10/05 04:01:50;;;;;;;;;;;14.60;99.90;;;;;;5031001;28;19928;-66
2022/10/05 04:04:19;;;;;;;;;;;14.60;99.90;;;;;;5035323;28;20010;-66
2022/10/05 04:06:46;;;;;;;;;;;14.60;99.90;;;;;;5030066;28;19925;-66
2022/10/05 04:09:19;;;;;;;;;;;14.60;99.90;;;;;;5026852;28;19925;-66
2022/10/05 04:12:04;;;;;;;;;;;14.70;99.90;;;;;;5023297;28;19925;-66
2022/10/05 04:14:35;;;;;;;;;;;14.60;99.90;;;;;;5009787;28;19921;-66
2022/10/05 04:17:15;;;;;;;;;;;14.60;99.90;;;;;;5032588;28;20019;-66
2022/10/05 04:19:56;;;;;;;;;;;14.60;99.90;;;;;;5022299;28;19925;-66
2022/10/05 04:22:24;;;;;;;;;;;14.60;99.90;;;;;;5028044;28;20529;-66
2022/10/05 04:24:53;;;;;;;;;;;14.60;99.90;;;;;;5030465;28;19971;-66
2022/10/05 04:27:20;;;;;;;;;;;14.60;99.90;;;;;;5028864;28;19955;-66
2022/10/05 04:30:06;;;;;;;;;;;14.60;99.90;;;;;;5027090;28;19925;-66
2022/10/05 04:32:43;;;;;;;;;;;14.60;99.90;;;;;;5027505;28;19943;-66
2022/10/05 04:35:08;;;;;;;;;;;14.60;99.90;;;;;;5030568;28;20000;-66
2022/10/05 04:37:48;;;;;;;;;;;14.60;99.90;;;;;;5028050;28;20012;-66
2022/10/05 04:40:14;;;;;;;;;;;14.60;99.90;;;;;;5028346;28;19932;-66
2022/10/05 04:42:45;;;;;;;;;;;14.60;99.90;;;;;;5029606;28;19925;-66
2022/10/05 04:45:11;;;;;;;;;;;14.60;99.90;;;;;;5033833;28;21996;-66
2022/10/05 04:47:55;;;;;;;;;;;14.60;99.90;;;;;;5027964;28;19925;-66
2022/10/05 04:50:50;;;;;;;;;;;14.60;99.90;;;;;;5039558;28;19925;-66
2022/10/05 04:53:21;;;;;;;;;;;14.60;99.90;;;;;;4979788;28;19933;-66
2022/10/05 04:55:52;;;;;;;;;;;14.60;99.90;;;;;;5036945;28;19978;-66
2022/10/05 04:58:23;;;;;;;;;;;14.60;99.90;;;;;;5034244;28;19929;-66
2022/10/05 05:01:12;;;;;;;;;;;14.60;99.90;;;;;;5030564;28;20364;-66
2022/10/05 05:03:40;;;;;;;;;;;14.60;99.90;;;;;;5032611;28;19921;-66
2022/10/05 05:06:20;;;;;;;;;;;14.60;99.90;;;;;;5032676;28;19925;-66
2022/10/05 05:09:05;;;;;;;;;;;14.50;99.90;;;;;;5036264;28;19948;-66
2022/10/05 05:11:37;;;;;;;;;;;14.60;99.90;;;;;;5040594;28;20598;-66
2022/10/05 05:14:11;;;;;;;;;;;14.50;99.90;;;;;;5052738;28;20277;-66
2022/10/05 05:16:39;;;;;;;;;;;14.50;99.90;;;;;;5050042;28;19928;-66
2022/10/05 05:19:07;;;;;;;;;;;14.50;99.90;;;;;;5035428;28;19929;-66
2022/10/05 05:21:48;;;;;;;;;;;14.50;99.90;;;;;;5050578;28;20255;-66
2022/10/05 05:24:29;;;;;;;;;;;14.50;99.90;;;;;;5050522;28;19927;-66
2022/10/05 05:27:13;;;;;;;;;;;14.50;99.90;;;;;;5009746;28;20007;-66
2022/10/05 05:29:59;;;;;;;;;;;14.50;99.90;;;;;;5027697;28;19928;-66
2022/10/05 05:32:27;;;;;;;;;;;14.50;99.90;;;;;;5053351;28;19927;-66
2022/10/05 05:35:12;;;;;;;;;;;14.50;99.90;;;;;;5053192;28;19975;-66
2022/10/05 05:37:40;;;;;;;;;;;14.50;99.90;;;;;;5054517;28;19921;-66
2022/10/05 05:40:08;;;;;;;;;;;14.50;99.90;;;;;;5050573;28;19978;-66
2022/10/05 05:42:46;;;;;;;;;;;14.50;99.90;;;;;;5052140;28;19966;-66
2022/10/05 05:45:37;;;;;;;;;;;14.60;99.90;;;;;;5052631;28;20252;-66
2022/10/05 05:48:09;;;;;;;;;;;14.50;99.90;;;;;;5017700;28;19924;-66
2022/10/05 05:50:38;;;;;;;;;;;14.50;99.90;;;;;;5041352;28;19939;-66
2022/10/05 05:53:15;;;;;;;;;;;14.50;99.90;;;;;;5032000;28;19979;-68
2022/10/05 05:55:44;;;;;;;;;;;14.50;99.90;;;;;;5045264;28;20007;-68
2022/10/05 05:58:16;;;;;;;;;;;14.50;99.90;;;;;;5032035;28;19921;-68
2022/10/05 06:00:50;;;;;;;;;;;14.50;99.90;;;;;;5052101;28;19970;-68
2022/10/05 06:03:34;;;;;;;;;;;14.50;99.90;;;;;;5032692;28;19924;-68
2022/10/05 06:06:03;;;;;;;;;;;14.50;99.90;;;;;;5033548;28;20286;-68
2022/10/05 06:08:40;;;;;;;;;;;14.50;99.90;;;;;;5032755;28;19928;-68
2022/10/05 06:11:24;;;;;;;;;;;14.50;99.90;;;;;;5030948;28;20010;-68
2022/10/05 06:13:50;;;;;;;;;;;14.50;99.90;;;;;;5051242;28;19920;-68
2022/10/05 06:16:37;;;;;;;;;;;14.50;99.90;;;;;;5021365;28;20309;-67
2022/10/05 06:19:10;;;;;;;;;;;14.50;99.90;;;;;;5025004;28;19928;-68
2022/10/05 06:21:41;;;;;;;;;;;14.50;99.90;;;;;;5010455;28;19921;-68
2022/10/05 06:24:15;;;;;;;;;;;14.50;99.90;;;;;;5026872;28;19921;-68
2022/10/05 06:26:58;;;;;;;;;;;14.50;99.90;;;;;;5039817;28;19927;-68
2022/10/05 06:29:26;;;;;;;;;;;14.50;99.90;;;;;;5014878;28;19921;-68
2022/10/05 06:31:51;;;;;;;;;;;14.50;99.90;;;;;;5031830;28;19948;-68
2022/10/05 06:34:31;;;;;;;;;;;14.60;99.90;;;;;;5038179;28;19921;-68
2022/10/05 06:37:03;;;;;;;;;;;14.60;99.90;;;;;;5033307;28;20542;-68
2022/10/05 06:39:54;;;;;;;;;;;14.60;99.90;;;;;;5031817;28;19941;-67
2022/10/05 06:42:25;;;;;;;;;;;14.60;99.90;;;;;;5030575;28;19924;-67
2022/10/05 06:45:13;;;;;;;;;;;14.60;99.90;;;;;;5036868;28;20324;-67
2022/10/05 06:47:45;;;;;;;;;;;14.60;99.90;;;;;;5024617;28;20434;-68
2022/10/05 06:50:14;;;;;;;;;;;14.60;99.90;;;;;;5026335;28;19960;-68
2022/10/05 06:52:42;;;;;;;;;;;14.60;99.90;;;;;;5031128;28;19929;-68
2022/10/05 06:55:14;;;;;;;;;;;14.70;99.90;;;;;;5026089;28;19925;-68
2022/10/05 06:57:49;;;;;;;;;;;14.70;99.90;;;;;;5051685;28;20278;-68
2022/10/05 07:00:16;;;;;;;;;;;14.70;99.90;;;;;;5050327;28;19932;-68
2022/10/05 07:02:41;;;;;;;;;;;14.70;99.90;;;;;;5034870;28;19956;-68
2022/10/05 07:05:26;;;;;;;;;;;14.70;99.90;;;;;;5035254;28;20005;-68
2022/10/05 07:07:51;;;;;;;;;;;14.70;99.90;;;;;;5030422;28;19929;-68
2022/10/05 07:10:29;;;;;;;;;;;14.70;99.90;;;;;;5016115;28;20344;-68
2022/10/05 07:13:04;;;;;;;;;;;14.80;99.90;;;;;;5032504;28;19921;-68
2022/10/05 07:15:32;;;;;;;;;;;14.70;99.90;;;;;;5032886;28;19925;-68
2022/10/05 07:18:01;;;;;;;;;;;14.80;99.90;;;;;;5035869;28;20447;-68
2022/10/05 07:20:33;;;;;;;;;;;14.80;99.90;;;;;;5050952;28;19924;-68
2022/10/05 07:23:07;;;;;;;;;;;14.90;99.90;;;;;;5029366;28;19947;-68
2022/10/05 07:25:41;;;;;;;;;;;15.00;99.90;;;;;;5029182;28;20374;-68
2022/10/05 07:28:11;;;;;;;;;;;14.90;99.90;;;;;;5030572;28;19928;-68
2022/10/05 07:30:40;;;;;;;;;;;15.00;99.90;;;;;;5047752;28;19932;-68
2022/10/05 07:33:27;;;;;;;;;;;15.00;99.90;;;;;;5032470;28;19970;-68
2022/10/05 07:39:05;;;;;;;;;;;15.10;99.90;;;;;;5032682;28;20301;-68
2022/10/05 07:41:31;;;;;;;;;;;15.10;99.90;;;;;;5045944;28;19929;-68
2022/10/05 07:44:05;;;;;;;;;;;15.00;99.90;;;;;;5027230;28;20263;-67
2022/10/05 07:46:30;;;;;;;;;;;15.00;99.90;;;;;;5030780;28;20438;-68
2022/10/05 07:49:02;;;;;;;;;;;15.00;99.90;;;;;;5030800;28;19921;-68
2022/10/05 07:51:36;;;;;;;;;;;15.10;99.90;;;;;;5030351;28;19921;-67
2022/10/05 07:54:08;;;;;;;;;;;15.10;99.90;;;;;;5026915;28;19927;-68
2022/10/05 07:56:42;;;;;;;;;;;15.10;99.90;;;;;;5030376;28;19924;-68
2022/10/05 07:59:14;;;;;;;;;;;15.10;99.90;;;;;;5032764;28;20566;-68
2022/10/05 08:01:44;;;;;;;;;;;15.20;99.90;;;;;;5022298;28;19928;-68
2022/10/05 08:04:13;;;;;;;;;;;15.20;99.90;;;;;;5042042;28;19924;-67
2022/10/05 08:06:47;;;;;;;;;;;15.30;99.90;;;;;;5032392;28;19955;-68
2022/10/05 08:09:35;;;;;;;;;;;15.40;99.90;;;;;;5047892;28;19929;-67
2022/10/05 08:12:19;;;;;;;;;;;15.50;99.90;;;;;;5032535;28;19928;-68
2022/10/05 08:14:50;;;;;;;;;;;15.60;99.90;;;;;;5026536;28;20287;-68
2022/10/05 08:17:35;;;;;;;;;;;15.60;99.90;;;;;;5031735;28;19924;-68
2022/10/05 08:20:04;;;;;;;;;;;15.70;99.90;;;;;;5031345;28;19925;-68
2022/10/05 08:22:33;;;;;;;;;;;15.80;99.90;;;;;;5031892;28;19982;-68
2022/10/05 08:25:02;;;;;;;;;;;15.80;99.90;;;;;;5031273;28;20015;-68
2022/10/05 08:27:47;;;;;;;;;;;15.80;99.90;;;;;;5032364;28;19931;-68
2022/10/05 08:30:14;;;;;;;;;;;15.90;99.90;;;;;;5035392;28;19920;-68
2022/10/05 08:32:46;;;;;;;;;;;15.90;99.90;;;;;;5052345;28;19924;-68
2022/10/05 08:35:44;;;;;;;;;;;16.00;99.90;;;;;;5034523;28;19982;-68
2022/10/05 08:38:15;;;;;;;;;;;16.10;99.90;;;;;;5004330;28;20271;-68
2022/10/05 08:40:59;;;;;;;;;;;16.20;99.90;;;;;;5056093;28;19990;-68
2022/10/05 08:43:25;;;;;;;;;;;16.30;99.90;;;;;;5030523;28;19979;-68
2022/10/05 08:45:56;;;;;;;;;;;16.40;99.90;;;;;;5026331;28;19928;-68
2022/10/05 08:48:40;;;;;;;;;;;16.40;99.90;;;;;;5052897;28;20712;-67
2022/10/05 08:51:10;;;;;;;;;;;16.50;99.90;;;;;;5034453;28;19967;-69
2022/10/05 08:53:38;;;;;;;;;;;16.60;99.90;;;;;;5036467;28;19947;-69
2022/10/05 08:56:22;;;;;;;;;;;16.70;99.90;;;;;;5034857;28;20013;-68
2022/10/05 08:59:06;;;;;;;;;;;16.80;99.90;;;;;;5052486;28;19971;-68
2022/10/05 09:01:47;;;;;;;;;;;16.90;99.90;;;;;;5031459;28;20402;-68
2022/10/05 09:04:16;;;;;;;;;;;17.00;99.90;;;;;;5035398;28;20309;-68
2022/10/05 09:06:56;;;;;;;;;;;17.00;99.90;;;;;;5033617;28;19970;-69
2022/10/05 09:09:41;;;;;;;;;;;17.10;99.90;;;;;;5037712;28;19932;-67
2022/10/05 09:12:23;;;;;;;;;;;17.10;99.90;;;;;;5036537;28;19964;-66
2022/10/05 09:14:55;;;;;;;;;;;17.10;99.90;;;;;;5034050;28;19921;-67
2022/10/05 09:17:40;;;;;;;;;;;17.10;99.90;;;;;;5033948;28;19971;-66
2022/10/05 09:20:29;;;;;;;;;;;17.10;99.90;;;;;;5034584;28;19933;-67
2022/10/05 09:23:03;;;;;;;;;;;17.10;99.90;;;;;;5027710;28;19929;-67
2022/10/05 09:25:41;;;;;;;;;;;17.10;99.90;;;;;;5047443;28;19931;-67
2022/10/05 09:28:16;;;;;;;;;;;17.20;99.90;;;;;;5034224;28;20009;-67
2022/10/05 09:30:53;;;;;;;;;;;17.20;99.90;;;;;;5031624;28;20027;-67
2022/10/05 09:33:33;;;;;;;;;;;17.20;99.90;;;;;;5031096;28;19985;-66
2022/10/05 09:36:11;;;;;;;;;;;17.30;99.90;;;;;;5034502;28;19935;-67
2022/10/05 09:38:55;;;;;;;;;;;17.30;99.90;;;;;;5027491;28;20371;-67
2022/10/05 09:41:46;;;;;;;;;;;17.40;99.90;;;;;;5050594;28;20394;-67
2022/10/05 09:44:12;;;;;;;;;;;17.50;99.90;;;;;;5050375;28;19967;-68
2022/10/05 09:47:01;;;;;;;;;;;17.70;99.90;;;;;;5033893;28;20365;-67
2022/10/05 09:49:27;;;;;;;;;;;17.80;99.90;;;;;;5033431;28;20016;-67
2022/10/05 09:52:08;;;;;;;;;;;17.70;99.90;;;;;;5033837;28;20007;-67
2022/10/05 09:54:33;;;;;;;;;;;17.70;99.90;;;;;;5015222;28;19932;-67
2022/10/05 09:57:18;;;;;;;;;;;17.90;99.90;;;;;;5031147;28;20825;-67
2022/10/05 09:59:55;;;;;;;;;;;17.80;99.90;;;;;;5049129;28;19924;-67
2022/10/05 10:02:20;;;;;;;;;;;17.90;99.90;;;;;;5033037;28;19966;-67
2022/10/05 10:04:52;;;;;;;;;;;17.90;99.90;;;;;;5051451;28;19963;-67
2022/10/05 10:07:36;;;;;;;;;;;17.80;99.90;;;;;;5033959;28;19920;-67
2022/10/05 10:10:20;;;;;;;;;;;17.80;99.90;;;;;;5032969;28;19929;-67
2022/10/05 10:12:56;;;;;;;;;;;17.80;99.90;;;;;;5032665;28;19974;-67
2022/10/05 10:15:30;;;;;;;;;;;17.90;99.90;;;;;;5032306;28;19924;-67
2022/10/05 10:18:11;;;;;;;;;;;17.80;99.90;;;;;;5033922;28;20435;-67
2022/10/05 10:20:52;;;;;;;;;;;17.90;99.90;;;;;;5033222;28;19925;-67
2022/10/05 10:23:17;;;;;;;;;;;17.80;99.90;;;;;;5033373;28;20012;-67
2022/10/05 10:25:59;;;;;;;;;;;17.90;99.90;;;;;;5030134;28;20027;-67
2022/10/05 10:28:46;;;;;;;;;;;17.90;99.90;;;;;;5028813;28;19966;-67
2022/10/05 10:31:14;;;;;;;;;;;17.90;99.90;;;;;;5051525;28;19925;-67
2022/10/05 10:33:46;;;;;;;;;;;17.90;99.90;;;;;;5031869;28;19924;-67
2022/10/05 10:36:14;;;;;;;;;;;17.80;99.90;;;;;;5039891;28;20333;-67
2022/10/05 10:38:50;;;;;;;;;;;17.80;99.90;;;;;;5051751;28;19959;-67
2022/10/05 10:41:23;;;;;;;;;;;17.80;99.90;;;;;;5038356;28;20491;-67
2022/10/05 10:43:57;;;;;;;;;;;17.70;99.90;;;;;;5049166;28;19931;-67
2022/10/05 10:46:38;;;;;;;;;;;17.80;99.90;;;;;;5052601;28;20409;-66
2022/10/05 10:49:22;;;;;;;;;;;17.80;99.90;;;;;;5019120;28;20007;-66
2022/10/05 10:51:48;;;;;;;;;;;17.80;99.90;;;;;;5020093;28;19920;-66
2022/10/05 10:54:37;;;;;;;;;;;17.90;99.90;;;;;;5033879;28;19947;-66
2022/10/05 10:57:04;;;;;;;;;;;17.90;99.90;;;;;;5041864;28;20119;-66
2022/10/05 10:59:42;;;;;;;;;;;17.90;99.90;;;;;;5028354;28;19925;-66
2022/10/05 11:02:14;;;;;;;;;;;17.90;99.90;;;;;;5033746;28;19924;-67
2022/10/05 11:04:39;;;;;;;;;;;17.90;99.90;;;;;;5027763;28;19928;-66
2022/10/05 11:07:20;;;;;;;;;;;17.90;99.90;;;;;;5032656;28;19928;-66
2022/10/05 11:09:48;;;;;;;;;;;17.90;99.90;;;;;;5029253;28;20330;-66
2022/10/05 11:12:15;;;;;;;;;;;17.90;99.90;;;;;;5029808;28;20028;-67
2022/10/05 11:15:00;;;;;;;;;;;17.90;99.90;;;;;;5005671;28;19949;-68
2022/10/05 11:17:44;;;;;;;;;;;18.00;99.90;;;;;;5029271;28;20436;-67
2022/10/05 11:20:19;;;;;;;;;;;18.00;99.90;;;;;;5051282;28;20496;-67
2022/10/05 11:22:53;;;;;;;;;;;17.90;99.90;;;;;;5033539;28;20285;-68
2022/10/05 11:25:37;;;;;;;;;;;18.00;99.90;;;;;;5030523;28;19921;-67
2022/10/05 11:28:08;;;;;;;;;;;17.90;99.90;;;;;;5006425;28;20007;-67
2022/10/05 11:31:00;;;;;;;;;;;18.00;99.90;;;;;;5039483;28;19925;-66
2022/10/05 11:33:36;;;;;;;;;;;17.90;99.90;;;;;;5007742;28;19928;-68
2022/10/05 11:36:20;;;;;;;;;;;17.90;99.90;;;;;;5035388;28;20003;-67
2022/10/05 11:39:04;;;;;;;;;;;17.90;99.90;;;;;;5042148;28;19928;-67
2022/10/05 11:41:56;;;;;;;;;;;17.90;99.90;;;;;;5027082;28;19921;-67
2022/10/05 11:44:41;;;;;;;;;;;17.90;99.90;;;;;;5035105;28;19920;-67
2022/10/05 11:47:19;;;;;;;;;;;18.00;99.90;;;;;;5050248;28;19948;-67
2022/10/05 11:49:56;;;;;;;;;;;18.00;99.90;;;;;;5048380;28;19931;-67
2022/10/05 11:52:29;;;;;;;;;;;17.90;99.90;;;;;;5040168;28;19924;-67
2022/10/05 11:54:59;;;;;;;;;;;17.90;99.90;;;;;;5032610;28;19921;-67
2022/10/05 11:57:27;;;;;;;;;;;17.90;99.90;;;;;;5027343;28;19921;-67
2022/10/05 12:00:14;;;;;;;;;;;17.90;99.90;;;;;;5041871;28;19925;-67
2022/10/05 12:02:51;;;;;;;;;;;17.90;99.90;;;;;;5033711;28;19951;-68
2022/10/05 12:05:27;;;;;;;;;;;17.90;99.90;;;;;;5035374;28;19925;-68
2022/10/05 12:08:01;;;;;;;;;;;17.70;99.90;;;;;;5036381;28;19924;-67
2022/10/05 12:10:46;;;;;;;;;;;17.70;99.90;;;;;;5036010;28;19935;-67
2022/10/05 12:13:27;;;;;;;;;;;17.70;99.90;;;;;;5024582;28;19925;-67
2022/10/05 12:15:57;;;;;;;;;;;17.70;99.90;;;;;;5028720;28;20596;-67
2022/10/05 12:18:31;;;;;;;;;;;17.60;99.90;;;;;;5053828;28;20410;-67
2022/10/05 12:21:03;;;;;;;;;;;17.60;99.90;;;;;;5038651;28;19931;-66
2022/10/05 12:23:36;;;;;;;;;;;17.60;99.90;;;;;;5035606;28;19921;-67
2022/10/05 12:26:03;;;;;;;;;;;17.60;99.90;;;;;;5033715;28;20336;-67
2022/10/05 12:28:35;;;;;;;;;;;17.50;99.90;;;;;;5048077;28;19931;-67
2022/10/05 12:31:16;;;;;;;;;;;17.50;99.90;;;;;;5053476;28;19974;-67
2022/10/05 12:33:45;;;;;;;;;;;17.50;99.90;;;;;;5035483;28;19928;-67
2022/10/05 12:36:13;;;;;;;;;;;17.50;99.90;;;;;;5028194;28;19975;-67
2022/10/05 12:38:58;;;;;;;;;;;17.40;99.90;;;;;;5035353;28;20672;-67
2022/10/05 12:41:30;;;;;;;;;;;17.50;99.90;;;;;;5034477;28;19925;-67
2022/10/05 12:43:56;;;;;;;;;;;17.60;99.90;;;;;;5035797;28;20007;-67
2022/10/05 12:46:30;;;;;;;;;;;17.60;99.90;;;;;;5036419;28;20043;-67
2022/10/05 12:49:17;;;;;;;;;;;17.50;99.90;;;;;;5038319;28;20006;-67
2022/10/05 12:51:55;;;;;;;;;;;17.50;99.90;;;;;;5032085;28;19975;-67
2022/10/05 12:54:27;;;;;;;;;;;17.60;99.90;;;;;;5037855;28;19921;-67
2022/10/05 12:56:58;;;;;;;;;;;17.50;99.90;;;;;;5017467;28;19975;-67
2022/10/05 12:59:26;;;;;;;;;;;17.50;99.90;;;;;;5024366;28;19951;-68
2022/10/05 13:02:17;;;;;;;;;;;17.60;99.90;;;;;;5037076;28;20378;-68
2022/10/05 13:04:46;;;;;;;;;;;17.50;99.90;;;;;;5038578;28;19931;-68
2022/10/05 13:07:34;;;;;;;;;;;17.50;99.90;;;;;;5035397;28;19924;-68
2022/10/05 13:10:18;;;;;;;;;;;17.50;99.90;;;;;;5011194;28;19925;-68
2022/10/05 13:12:50;;;;;;;;;;;17.50;99.90;;;;;;5031916;28;19925;-68
2022/10/05 13:15:22;;;;;;;;;;;17.50;99.90;;;;;;5015786;28;19925;-68
2022/10/05 13:17:52;;;;;;;;;;;17.40;99.90;;;;;;5046619;28;19946;-68
2022/10/05 13:20:28;;;;;;;;;;;17.40;99.90;;;;;;5031699;28;19936;-67
2022/10/05 13:23:04;;;;;;;;;;;17.60;99.90;;;;;;5034234;28;19921;-67
2022/10/05 13:25:56;;;;;;;;;;;17.50;99.90;;;;;;5031566;28;20446;-67
2022/10/05 13:28:28;;;;;;;;;;;17.60;99.90;;;;;;5028174;28;19929;-67
2022/10/05 13:31:01;;;;;;;;;;;17.70;99.90;;;;;;5045447;28;20428;-67
2022/10/05 13:33:30;;;;;;;;;;;17.80;99.90;;;;;;5047139;28;19964;-67
2022/10/05 13:36:34;;;;;;;;;;;17.90;99.90;;;;;;5037485;28;20023;-66
2022/10/05 13:39:09;;;;;;;;;;;17.90;99.90;;;;;;4967945;28;19926;-66
2022/10/05 13:41:44;;;;;;;;;;;18.00;99.90;;;;;;4949313;28;20447;-66
2022/10/05 13:44:17;;;;;;;;;;;18.00;99.90;;;;;;4998878;28;19925;-66
2022/10/05 13:46:47;;;;;;;;;;;18.00;99.90;;;;;;5035428;28;19936;-66
2022/10/05 13:49:31;;;;;;;;;;;18.10;99.90;;;;;;5050859;28;19952;-67
2022/10/05 13:51:57;;;;;;;;;;;18.10;99.90;;;;;;5035427;28;19931;-66
2022/10/05 13:54:28;;;;;;;;;;;18.20;99.90;;;;;;5030879;28;19920;-66
2022/10/05 13:56:57;;;;;;;;;;;18.20;99.90;;;;;;5048203;28;19920;-67
2022/10/05 13:59:37;;;;;;;;;;;18.20;99.90;;;;;;5051742;28;19932;-67
2022/10/05 14:02:08;;;;;;;;;;;18.20;99.90;;;;;;5048233;28;20009;-67
2022/10/05 14:04:45;;;;;;;;;;;18.20;99.90;;;;;;5054044;28;20259;-66
2022/10/05 14:07:20;;;;;;;;;;;18.20;99.90;;;;;;5035433;28;19921;-66
2022/10/05 14:09:47;;;;;;;;;;;18.20;99.90;;;;;;5033908;28;19935;-67
2022/10/05 14:12:17;;;;;;;;;;;18.30;99.90;;;;;;5027163;28;20448;-66
2022/10/05 14:14:42;;;;;;;;;;;18.20;99.90;;;;;;5036647;28;19963;-67
2022/10/05 14:17:16;;;;;;;;;;;18.20;99.90;;;;;;5037213;28;19986;-67
2022/10/05 14:19:43;;;;;;;;;;;18.20;99.90;;;;;;5034158;28;19964;-67
2022/10/05 14:22:35;;;;;;;;;;;18.30;99.90;;;;;;5016683;28;19927;-67
2022/10/05 14:25:00;;;;;;;;;;;18.20;99.90;;;;;;5034174;28;19924;-67
2022/10/05 14:27:31;;;;;;;;;;;18.20;99.90;;;;;;5036071;28;19921;-67
2022/10/05 14:29:59;;;;;;;;;;;18.30;99.90;;;;;;5032918;28;19986;-67
2022/10/05 14:32:26;;;;;;;;;;;18.40;99.90;;;;;;5034400;28;19995;-67
2022/10/05 14:34:58;;;;;;;;;;;18.30;99.90;;;;;;5032785;28;19921;-67
2022/10/05 14:37:31;;;;;;;;;;;18.30;99.90;;;;;;5033727;28;20015;-67
2022/10/05 14:40:00;;;;;;;;;;;18.30;99.90;;;;;;5033221;28;19925;-67
2022/10/05 14:42:27;;;;;;;;;;;18.40;99.90;;;;;;5033692;28;19931;-67
2022/10/05 14:45:10;;;;;;;;;;;18.40;99.90;;;;;;5031895;28;19932;-68
2022/10/05 14:47:43;;;;;;;;;;;18.30;99.90;;;;;;5032360;28;19929;-67
2022/10/05 14:50:17;;;;;;;;;;;18.30;99.90;;;;;;5033556;28;19920;-67
2022/10/05 14:52:45;;;;;;;;;;;18.30;99.90;;;;;;5033705;28;19920;-67
2022/10/05 14:55:17;;;;;;;;;;;18.30;99.90;;;;;;5032152;28;19928;-67
2022/10/05 14:57:51;;;;;;;;;;;18.30;99.90;;;;;;5028835;28;19921;-67
2022/10/05 15:00:17;;;;;;;;;;;18.20;99.90;;;;;;5033152;28;19929;-67
2022/10/05 15:03:09;;;;;;;;;;;18.10;99.90;;;;;;5049563;28;19966;-67